Sharps Corner, South Dakota
Current Conditions -  °F | °C
As of 3:59 AM on Thursday 18 Dec 2014 (Local Time) from KIEN Reporting Station
Haze Haze  
Wind Chill:   Ceiling: 200
Heat Index: 15°   Visibility: 6mi
Dew Point: 12°   Wind: 6mph
Humidity: 88%   Direction: 210°SSW
Pressure: 30.01"   Gusts: NA
Location:  43.2863°N, 102.209°W
Report Text: KIEN 181059Z AUTO 21005KT 6SM BR OVC002 M09/M11 A3001 RMK AO2 T10941111
Loading
Personal Weather Stations






























Interactive Weather Map New forecast layout! Learn more

10-Day Weather Forecast

Advertisements
Track Severe Weather on mobile